createdAt,value
2019-04-23T00:02:34.352Z,144132.75
2019-04-23T00:12:47.837Z,144144.52
2019-04-23T00:17:38.625Z,144171.50
2019-04-23T00:22:37.713Z,144199.70
2019-04-23T00:32:28.830Z,144216.19
2019-04-23T00:42:29.663Z,144236.16
2019-04-23T00:47:25.333Z,144233.78
2019-04-23T00:52:22.149Z,144236.16
2019-04-23T00:57:27.198Z,144245.55
2019-04-23T01:02:18.283Z,144235.00
2019-04-23T01:07:11.324Z,144196.19
2019-04-23T01:12:16.667Z,144224.39
2019-04-23T01:17:17.277Z,144224.39
2019-04-23T01:21:47.627Z,144229.11
2019-04-23T01:27:43.179Z,144217.34
2019-04-23T01:32:25.653Z,144212.67
2019-04-23T01:37:26.807Z,144179.75
2019-04-23T01:42:29.603Z,144222.08
2019-04-23T01:47:25.067Z,144247.91
2019-04-23T01:52:24.910Z,144254.95
2019-04-23T01:57:21.500Z,144256.11
2019-04-23T02:02:22.135Z,144280.80
2019-04-23T02:07:11.432Z,144282.00
2019-04-23T02:12:11.605Z,144286.69
2019-04-23T02:17:10.527Z,144280.80
2019-04-23T02:27:22.395Z,144254.95
2019-04-23T02:32:22.228Z,144279.64
2019-04-23T02:37:24.389Z,144293.72
2019-04-23T02:47:19.326Z,144289.05
2019-04-23T02:57:18.666Z,144292.56
2019-04-23T03:02:24.067Z,144280.80
2019-04-23T03:07:14.143Z,144290.20
2019-04-23T03:12:07.880Z,144267.88
2019-04-23T03:22:09.534Z,144278.44
2019-04-23T03:42:02.758Z,144242.03
2019-04-23T03:47:01.732Z,144210.31
2019-04-23T03:57:08.700Z,144153.91
2019-04-23T04:02:20.556Z,144123.34
2019-04-23T04:07:15.175Z,144111.59
2019-04-23T04:11:34.308Z,144113.95
2019-04-23T04:21:53.691Z,144072.80
2019-04-23T04:26:50.972Z,144008.19
2019-04-23T04:37:18.387Z,143956.55
2019-04-23T04:41:39.998Z,143977.69
2019-04-23T04:46:42.376Z,143965.94
2019-04-23T04:51:39.604Z,144022.31
2019-04-23T04:56:37.978Z,144097.52
2019-04-23T05:11:28.861Z,144175.06
2019-04-23T05:16:19.953Z,144216.19
2019-04-23T05:21:38.781Z,144258.47
2019-04-23T05:26:23.249Z,144254.95
2019-04-23T05:36:24.773Z,144833.81
2019-04-23T05:41:26.963Z,145252.20
2019-04-23T05:46:22.318Z,145302.91
2019-04-23T05:51:33.404Z,145062.39
2019-04-23T05:56:22.138Z,144998.73
2019-04-23T06:01:41.387Z,144737.27
2019-04-23T06:06:30.939Z,144579.53
2019-04-23T06:11:28.474Z,144600.72
2019-04-23T06:16:24.961Z,144599.56
2019-04-23T06:21:18.909Z,144626.59
2019-04-23T06:26:25.572Z,144588.94
2019-04-23T06:31:15.164Z,144650.16
2019-04-23T06:36:12.383Z,144720.80
2019-04-23T06:46:09.966Z,144661.89
2019-04-23T06:51:12.832Z,144709.02
2019-04-23T06:56:14.447Z,144826.77
2019-04-23T07:06:19.192Z,144878.55
2019-04-23T07:11:14.261Z,144964.56
2019-04-23T07:16:00.711Z,144930.41
2019-04-23T07:21:07.957Z,144986.98
2019-04-23T07:26:06.097Z,144992.84
2019-04-23T07:31:07.399Z,144996.41
2019-04-23T07:35:59.942Z,145052.97
2019-04-23T07:41:06.421Z,145076.52
2019-04-23T07:46:40.808Z,145107.17
2019-04-23T07:51:20.908Z,145188.50
2019-04-23T07:56:27.911Z,145309.97
2019-04-23T08:01:13.799Z,145355.98
2019-04-23T08:06:15.288Z,145383.08
2019-04-23T08:16:23.035Z,145437.33
2019-04-23T08:26:34.860Z,145456.20
2019-04-23T08:31:32.290Z,145456.20
2019-04-23T08:36:27.883Z,145488.16
2019-04-23T08:41:26.936Z,145464.53
2019-04-23T08:46:25.051Z,145518.80
2019-04-23T08:51:40.492Z,145532.98
2019-04-23T08:56:27.489Z,145597.86
2019-04-23T09:01:16.543Z,145590.80
2019-04-23T09:16:10.670Z,145671.09
2019-04-23T09:21:07.328Z,145557.77
2019-04-23T09:26:02.513Z,145648.63
2019-04-23T09:31:15.648Z,145686.44
2019-04-23T09:36:30.249Z,145790.36
2019-04-23T09:41:42.364Z,145773.84
2019-04-23T09:46:33.652Z,145808.09
2019-04-23T09:51:36.702Z,145887.23
2019-04-23T09:56:36.152Z,145825.83
2019-04-23T10:06:09.692Z,145860.05
2019-04-23T10:10:59.672Z,145938.08
2019-04-23T10:15:55.874Z,145965.28
2019-04-23T10:20:54.424Z,146004.25
2019-04-23T10:25:52.059Z,146072.81
2019-04-23T10:30:49.061Z,146020.78
2019-04-23T10:35:53.360Z,146105.94
2019-04-23T10:40:46.758Z,146148.53
2019-04-23T10:46:07.949Z,146172.14
2019-04-23T10:51:42.436Z,146175.69
2019-04-23T10:56:36.099Z,146181.61
2019-04-23T11:01:31.910Z,146176.91
2019-04-23T11:11:24.088Z,146269.13
2019-04-23T11:26:42.478Z,146356.67
2019-04-23T11:31:43.449Z,146367.34
2019-04-23T11:36:53.926Z,146314.11
2019-04-23T11:41:41.818Z,146405.22
2019-04-23T11:46:46.198Z,146357.89
2019-04-23T11:51:45.920Z,146387.44
2019-04-23T12:01:51.890Z,146467.94
2019-04-23T12:06:47.809Z,146510.56
2019-04-23T12:11:53.447Z,146581.61
2019-04-23T12:16:57.315Z,146560.28
2019-04-23T12:21:43.934Z,146515.31
2019-04-23T12:26:42.441Z,146588.70
2019-04-23T12:31:37.910Z,146610.02
2019-04-23T12:36:44.089Z,146593.41
2019-04-23T12:41:47.866Z,146553.19
2019-04-23T12:51:43.356Z,146581.61
2019-04-23T12:56:48.428Z,146543.73
2019-04-23T13:01:42.752Z,146678.72
2019-04-23T13:06:28.144Z,146524.78
2019-04-23T13:11:52.883Z,146618.28
2019-04-23T13:21:51.693Z,146736.77
2019-04-23T13:26:17.782Z,146694.11
2019-04-23T13:31:21.749Z,146652.62
2019-04-23T13:36:32.304Z,146790.03
2019-04-23T13:41:21.576Z,146790.03
2019-04-23T13:46:17.252Z,146870.66
2019-04-23T13:51:22.691Z,146775.84
2019-04-23T14:01:30.833Z,146827.94
2019-04-23T14:06:29.352Z,146827.94
2019-04-23T14:11:20.516Z,146816.13
2019-04-23T14:16:10.349Z,146777.00
2019-04-23T14:21:15.929Z,146788.86
2019-04-23T14:31:07.766Z,146726.08
2019-04-23T14:36:03.194Z,146708.34
2019-04-23T14:46:23.416Z,146713.06
2019-04-23T14:50:56.876Z,146681.09
2019-04-23T15:01:07.584Z,146610.02
2019-04-23T15:06:04.919Z,146664.52
2019-04-23T15:11:06.402Z,146745.03
2019-04-23T15:15:58.747Z,146747.41
2019-04-23T15:21:08.554Z,146740.31
2019-04-23T15:26:39.438Z,146832.73
2019-04-23T15:30:57.513Z,146785.31
2019-04-23T15:36:08.776Z,146687.02
2019-04-23T15:40:51.195Z,146676.33
2019-04-23T15:45:44.754Z,146768.73
2019-04-23T15:50:46.294Z,146717.81
2019-04-23T15:55:44.648Z,146875.37
2019-04-23T16:00:38.415Z,146811.36
2019-04-23T16:05:10.058Z,146768.73
2019-04-23T16:10:46.047Z,146748.58
2019-04-23T16:15:35.834Z,146800.72
2019-04-23T16:20:37.944Z,146759.27
2019-04-23T16:25:26.391Z,146685.80
2019-04-23T16:35:51.298Z,146628.97
2019-04-23T16:40:37.579Z,146645.53
2019-04-23T16:45:37.110Z,146591.08
2019-04-23T16:50:57.824Z,146555.53
2019-04-23T16:55:40.103Z,146581.61
2019-04-23T17:05:39.498Z,146405.22
2019-04-23T17:10:48.730Z,146401.67
2019-04-23T17:15:48.189Z,146379.19
2019-04-23T17:20:40.912Z,146401.67
2019-04-23T17:25:36.623Z,146439.53
2019-04-23T17:36:07.358Z,146367.34
2019-04-23T17:41:00.070Z,146316.48
2019-04-23T17:46:00.998Z,146318.88
2019-04-23T17:51:04.141Z,146230.06
2019-04-23T17:56:08.688Z,146153.23
2019-04-23T18:01:11.271Z,146089.34
2019-04-23T18:06:09.026Z,146047.98
2019-04-23T18:10:56.465Z,146034.98
2019-04-23T18:15:53.570Z,146001.88
2019-04-23T18:21:13.904Z,145971.19
2019-04-23T18:26:04.089Z,145928.63
2019-04-23T18:31:11.269Z,145897.89
2019-04-23T18:36:03.235Z,145845.89
2019-04-23T18:41:05.352Z,145827.00
2019-04-23T18:46:08.713Z,145802.19
2019-04-23T18:51:03.467Z,145751.41
2019-04-23T19:01:05.250Z,145713.62
2019-04-23T19:06:14.972Z,145694.72
2019-04-23T19:11:24.062Z,145671.09
2019-04-23T19:16:21.283Z,145647.45
2019-04-23T19:21:32.061Z,145633.31
2019-04-23T19:26:42.516Z,145597.86
2019-04-23T19:31:42.087Z,145571.91
2019-04-23T19:36:42.612Z,145573.13
2019-04-23T19:41:44.455Z,145586.09
2019-04-23T19:46:47.105Z,145586.09
2019-04-23T19:56:30.128Z,145568.38
2019-04-23T20:01:23.875Z,145581.34
2019-04-23T20:06:48.484Z,145588.42
2019-04-23T20:11:32.729Z,145583.72
2019-04-23T20:21:08.598Z,145590.80
2019-04-23T20:26:17.330Z,145584.89
2019-04-23T20:36:25.940Z,145581.34
2019-04-23T20:41:34.950Z,145574.28
2019-04-23T20:46:27.997Z,145578.97
2019-04-23T20:51:29.171Z,145560.09
2019-04-23T20:56:30.183Z,145535.34
2019-04-23T21:06:46.992Z,145499.91
2019-04-23T21:11:35.499Z,145490.47
2019-04-23T21:16:31.114Z,145456.20
2019-04-23T21:21:40.046Z,145432.64
2019-04-23T21:26:25.164Z,145417.30
2019-04-23T21:41:45.240Z,145354.77
2019-04-23T22:01:33.267Z,145297.00
2019-04-23T22:06:31.370Z,145288.72
2019-04-23T22:11:53.792Z,145239.23
2019-04-23T22:16:23.400Z,145248.67
2019-04-23T22:26:34.449Z,145266.33
2019-04-23T22:31:18.846Z,145295.84
2019-04-23T22:36:15.147Z,145326.47
2019-04-23T22:41:16.224Z,145312.33
2019-04-23T22:46:23.126Z,145266.33
2019-04-23T22:51:20.797Z,145246.30
2019-04-23T22:56:15.040Z,145260.42
2019-04-23T23:01:51.301Z,145258.09
2019-04-23T23:06:30.909Z,145269.86
2019-04-23T23:11:22.813Z,145265.16
2019-04-23T23:16:23.303Z,145267.53
2019-04-23T23:21:20.517Z,145298.16
2019-04-23T23:31:29.949Z,145340.64
2019-04-23T23:41:25.042Z,145343.00
2019-04-23T23:46:24.420Z,145351.23
2019-04-23T23:51:29.142Z,145366.58
2019-04-23T23:56:30.729Z,145354.77
